Time;durP1;ratioP1;P1;durP2;ratioP2;P2;SDS_P1;SDS_P2;PMS_P1;PMS_P2;Temp;Humidity;BMP_temperature;BMP_pressure;BME280_temperature;BME280_humidity;BME280_pressure;Samples;Min_cycle;Max_cycle;Signal;HPM_P1;HPM_P2
2021/01/23 00:00:55;;;;;;;10.22;6.60;;;2.80;99.90;;;5.15;100.00;99584.36;1684683;75;25919;-79
2021/01/23 00:03:18;;;;;;;14.20;8.14;;;2.70;99.90;;;5.12;100.00;99580.01;1685408;75;24851;-80
2021/01/23 00:05:35;;;;;;;14.99;7.91;;;2.80;99.90;;;5.13;100.00;99584.34;1686435;75;24434;-80
2021/01/23 00:07:52;;;;;;;12.18;7.38;;;2.80;99.90;;;5.10;100.00;99573.98;1693732;75;25137;-80
2021/01/23 00:10:17;;;;;;;11.17;7.15;;;2.70;99.90;;;5.16;100.00;99575.34;1681536;75;24508;-81
2021/01/23 00:12:35;;;;;;;13.80;7.97;;;2.80;99.90;;;5.22;100.00;99570.25;1678301;74;24488;-81
2021/01/23 00:14:55;;;;;;;13.54;7.25;;;2.80;99.90;;;5.27;100.00;99572.88;1677971;75;24576;-80
2021/01/23 00:17:13;;;;;;;12.42;6.39;;;2.80;99.90;;;5.25;100.00;99577.17;1682328;75;24494;-80
2021/01/23 00:19:32;;;;;;;12.84;7.49;;;2.80;99.90;;;5.18;100.00;99565.92;1689034;75;25022;-81
2021/01/23 00:21:49;;;;;;;14.41;7.43;;;2.90;99.90;;;5.27;100.00;99575.45;1671768;75;24986;-80
2021/01/23 00:24:10;;;;;;;11.76;6.36;;;2.90;99.90;;;5.16;100.00;99571.47;1682301;74;24582;-81
2021/01/23 00:26:37;;;;;;;12.67;6.50;;;2.90;99.90;;;5.13;100.00;99575.31;1688101;75;24881;-80
2021/01/23 00:28:55;;;;;;;11.96;7.61;;;2.90;99.90;;;5.16;100.00;99565.44;1692098;75;24856;-80
2021/01/23 00:31:15;;;;;;;10.47;7.38;;;2.90;99.90;;;5.18;100.00;99566.33;1684261;75;24500;-81
2021/01/23 00:33:31;;;;;;;14.03;7.72;;;2.90;99.90;;;5.13;100.00;99565.41;1694972;75;24459;-83
2021/01/23 00:35:48;;;;;;;13.04;6.91;;;2.90;99.90;;;5.21;100.00;99568.94;1689534;75;24454;-80
2021/01/23 00:38:05;;;;;;;11.98;7.52;;;2.90;99.90;;;5.22;100.00;99556.05;1686544;75;24493;-81
2021/01/23 00:40:24;;;;;;;12.56;6.81;;;2.90;99.90;;;5.28;100.00;99559.98;1682217;75;24511;-79
2021/01/23 00:42:39;;;;;;;10.30;5.30;;;2.90;99.90;;;5.20;100.00;99560.77;1679551;75;24480;-81
2021/01/23 00:44:58;;;;;;;11.44;7.77;;;2.90;99.90;;;5.20;100.00;99552.59;1678615;75;24485;-81
2021/01/23 00:47:14;;;;;;;12.80;7.07;;;2.90;99.90;;;5.21;100.00;99556.91;1681263;75;24528;-80
2021/01/23 00:49:33;;;;;;;11.73;6.96;;;2.90;99.90;;;5.26;100.00;99558.25;1689606;75;24371;-80
2021/01/23 00:51:52;;;;;;;13.02;7.70;;;2.90;99.90;;;5.22;100.00;99548.73;1683828;75;24885;-80
2021/01/23 00:54:13;;;;;;;11.49;7.40;;;3.00;99.90;;;5.21;100.00;99550.47;1688466;75;24454;-80
2021/01/23 00:56:30;;;;;;;11.96;7.50;;;3.00;99.90;;;5.30;100.00;99546.69;1693939;75;24954;-81
2021/01/23 00:58:47;;;;;;;13.84;8.60;;;3.00;99.90;;;5.38;100.00;99551.91;1691815;75;24449;-80
2021/01/23 01:01:06;;;;;;;10.78;6.95;;;3.00;99.90;;;5.44;100.00;99545.52;1685167;75;24973;-81
2021/01/23 01:03:26;;;;;;;13.15;8.08;;;3.00;99.90;;;5.34;100.00;99552.75;1689653;75;24492;-80
2021/01/23 01:05:46;;;;;;;12.83;8.88;;;3.10;99.90;;;5.42;100.00;99548.53;1680985;75;24462;-81
2021/01/23 01:08:03;;;;;;;8.42;5.70;;;3.10;99.90;;;5.31;100.00;99549.70;1678371;75;24501;-80
2021/01/23 01:10:27;;;;;;;16.08;9.26;;;3.00;99.90;;;5.17;100.00;99543.97;1681738;75;24939;-81
2021/01/23 01:12:45;;;;;;;12.46;8.49;;;3.00;99.90;;;5.20;100.00;99545.29;1678570;75;24959;-81
2021/01/23 01:15:02;;;;;;;12.78;9.13;;;3.00;99.90;;;5.15;100.00;99540.08;1691401;75;24998;-80
2021/01/23 01:17:20;;;;;;;12.09;7.04;;;3.00;99.90;;;5.11;100.00;99536.14;1698695;74;24532;-81
2021/01/23 01:19:39;;;;;;;11.58;8.37;;;2.90;99.90;;;5.08;100.00;99539.56;1688232;75;24449;-80
2021/01/23 01:21:57;;;;;;;12.27;8.71;;;2.90;99.90;;;5.12;100.00;99534.02;1697769;75;24436;-79
2021/01/23 01:24:16;;;;;;;14.48;8.33;;;2.90;99.90;;;5.22;100.00;99535.41;1675579;75;24445;-79
2021/01/23 01:26:33;;;;;;;13.47;8.61;;;2.90;99.90;;;5.16;100.00;99534.06;1683261;75;24849;-81
2021/01/23 01:28:49;;;;;;;11.80;7.01;;;2.90;99.90;;;5.15;100.00;99535.34;1678327;75;24450;-80
2021/01/23 01:31:07;;;;;;;12.94;9.21;;;2.90;99.90;;;5.16;100.00;99535.77;1689282;75;24457;-77
2021/01/23 01:33:26;;;;;;;15.56;10.38;;;2.90;99.90;;;5.16;100.00;99534.48;1686118;75;24491;-79
2021/01/23 01:35:44;;;;;;;9.76;5.90;;;2.90;99.90;;;5.17;100.00;99538.81;1703902;74;24843;-80
2021/01/23 01:38:02;;;;;;;12.06;6.98;;;2.90;99.90;;;5.05;100.00;99543.81;1667928;76;25060;-81
2021/01/23 01:40:20;;;;;;;11.49;6.98;;;2.80;99.90;;;4.97;100.00;99542.85;1692572;75;24891;-79
2021/01/23 01:42:40;;;;;;;12.74;9.13;;;2.80;99.90;;;5.01;100.00;99544.19;1689663;75;24438;-79
2021/01/23 01:44:56;;;;;;;13.90;9.06;;;2.80;99.90;;;5.06;100.00;99542.98;1698794;75;25058;-79
2021/01/23 01:47:14;;;;;;;13.68;10.43;;;2.80;99.90;;;5.08;100.00;99539.97;1692016;75;24499;-79
2021/01/23 01:49:34;;;;;;;15.06;9.07;;;2.80;99.90;;;4.97;100.00;99534.70;1695774;75;24382;-79
2021/01/23 01:51:54;;;;;;;13.83;9.78;;;2.80;99.90;;;5.01;100.00;99539.48;1693737;75;24548;-80
2021/01/23 01:54:13;;;;;;;13.65;7.99;;;2.80;99.90;;;5.01;100.00;99532.59;1689776;75;24469;-81
2021/01/23 01:56:31;;;;;;;13.61;9.59;;;2.80;99.90;;;4.88;100.00;99533.73;1700551;75;24463;-79
2021/01/23 01:58:48;;;;;;;14.27;8.85;;;2.80;99.90;;;5.07;100.00;99536.97;1703039;75;24444;-79
2021/01/23 02:01:05;;;;;;;14.61;9.82;;;2.80;99.90;;;4.99;100.00;99539.47;1689775;75;24520;-77
2021/01/23 02:06:49;;;;;;;12.32;9.68;;;2.70;99.90;;;4.95;100.00;99524.78;1739892;72;25226;-80
2021/01/23 02:09:12;;;;;;;16.50;10.92;;;2.70;99.90;;;4.90;100.00;99530.75;1706672;74;24994;-80
2021/01/23 02:11:37;;;;;;;15.56;10.00;;;2.70;99.90;;;4.97;100.00;99526.97;1706171;74;24540;-79
2021/01/23 02:14:05;;;;;;;12.05;8.57;;;2.60;99.90;;;4.86;100.00;99537.99;1706154;74;24454;-79
2021/01/23 02:16:26;;;;;;;14.27;10.28;;;2.60;99.90;;;4.80;100.00;99526.32;1705526;74;24655;-79
2021/01/23 02:18:47;;;;;;;15.46;10.38;;;2.60;99.90;;;4.87;100.00;99530.27;1713593;74;24507;-81
2021/01/23 02:24:17;;;;;;;14.16;8.80;;;2.60;99.90;;;4.97;100.00;99520.93;1744292;72;25236;-79
2021/01/23 02:26:50;;;;;;;13.82;9.65;;;2.60;99.90;;;4.91;100.00;99525.61;1708380;74;24478;-78
2021/01/23 02:29:19;;;;;;;10.69;8.29;;;2.60;99.90;;;4.88;100.00;99518.25;1731150;73;24466;-79
2021/01/23 02:31:40;;;;;;;12.33;8.12;;;2.60;99.90;;;4.94;100.00;99515.73;1712179;73;24466;-78
2021/01/23 02:34:02;;;;;;;10.18;6.89;;;2.60;99.90;;;4.92;100.00;99515.72;1703264;74;24934;-80
2021/01/23 02:36:26;;;;;;;16.23;10.80;;;2.60;99.90;;;4.93;100.00;99516.19;1708875;73;24386;-80
2021/01/23 02:38:45;;;;;;;14.94;9.70;;;2.60;99.90;;;4.97;100.00;99513.19;1703849;73;24449;-80
2021/01/23 02:41:08;;;;;;;12.26;8.08;;;2.60;99.90;;;4.98;100.00;99519.66;1714415;74;24555;-79
2021/01/23 02:43:24;;;;;;;13.87;9.51;;;2.70;99.90;;;5.02;100.00;99525.72;1707979;74;24533;-79
2021/01/23 02:45:41;;;;;;;13.09;9.27;;;2.70;99.90;;;5.09;100.00;99515.93;1702755;74;24857;-79
2021/01/23 02:48:01;;;;;;;12.66;7.76;;;2.70;99.90;;;5.01;100.00;99516.27;1707749;74;24855;-80
2021/01/23 02:50:20;;;;;;;12.63;8.17;;;2.70;99.90;;;4.95;100.00;99515.76;1708852;73;24507;-80
2021/01/23 02:52:50;;;;;;;11.65;7.66;;;2.70;99.90;;;4.92;100.00;99513.56;1706514;74;24489;-79
2021/01/23 02:55:12;;;;;;;10.70;8.13;;;2.70;99.90;;;4.91;100.00;99510.14;1702961;74;24984;-80
2021/01/23 02:57:31;;;;;;;11.42;7.93;;;2.70;99.90;;;5.05;100.00;99512.86;1714299;74;24467;-80
2021/01/23 02:59:51;;;;;;;12.99;9.05;;;2.70;99.90;;;5.06;100.00;99515.90;1718642;73;24450;-81
2021/01/23 03:02:11;;;;;;;13.08;9.33;;;2.70;99.90;;;5.15;100.00;99507.84;1688402;75;24844;-79
2021/01/23 03:04:29;;;;;;;11.21;7.93;;;2.80;99.90;;;5.28;100.00;99506.24;1707551;74;24461;-79
2021/01/23 03:06:47;;;;;;;12.72;8.79;;;2.90;99.90;;;5.23;100.00;99513.06;1708919;74;24456;-80
2021/01/23 03:09:18;;;;;;;13.43;9.27;;;2.90;99.90;;;5.35;100.00;99517.05;1711415;73;24497;-80
2021/01/23 03:11:35;;;;;;;12.40;8.95;;;3.00;99.90;;;5.42;100.00;99508.53;1706709;75;24508;-80
2021/01/23 03:13:52;;;;;;;12.06;7.69;;;3.10;99.90;;;5.45;100.00;99497.81;1705742;74;24550;-81
2021/01/23 03:16:09;;;;;;;12.04;7.76;;;3.10;99.90;;;5.40;100.00;99508.93;1712527;73;24468;-81
2021/01/23 03:18:27;;;;;;;11.44;7.43;;;3.20;99.90;;;5.44;100.00;99496.06;1709588;73;24485;-80
2021/01/23 03:20:45;;;;;;;10.10;8.00;;;3.20;99.90;;;5.43;100.00;99494.77;1705995;74;24437;-79
2021/01/23 03:23:06;;;;;;;11.69;9.00;;;3.20;99.90;;;5.57;100.00;99489.29;1716697;74;24503;-80
2021/01/23 03:25:23;;;;;;;12.37;7.62;;;3.30;99.90;;;5.53;100.00;99493.55;1697569;74;24955;-81
2021/01/23 03:27:43;;;;;;;11.28;6.72;;;3.30;99.90;;;5.54;100.00;99491.84;1706192;74;24435;-80
2021/01/23 03:29:59;;;;;;;9.95;6.13;;;3.30;99.90;;;5.57;100.00;99494.45;1706831;74;24495;-80
2021/01/23 03:32:17;;;;;;;9.40;6.61;;;3.40;99.90;;;5.52;100.00;99501.28;1706980;74;24937;-79
2021/01/23 03:34:36;;;;;;;9.67;6.68;;;3.40;99.90;;;5.53;100.00;99492.27;1705496;74;24931;-80
2021/01/23 03:36:53;;;;;;;8.79;6.71;;;3.40;99.90;;;5.65;100.00;99492.80;1705805;74;24498;-80
2021/01/23 03:39:11;;;;;;;9.52;5.81;;;3.50;99.90;;;5.61;100.00;99493.64;1708879;74;24438;-80
2021/01/23 03:41:28;;;;;;;10.67;7.99;;;3.50;99.90;;;5.58;100.00;99496.20;1707616;74;24949;-79
2021/01/23 03:43:45;;;;;;;10.85;6.90;;;3.50;99.90;;;5.72;100.00;99496.73;1702155;73;24457;-77
2021/01/23 03:46:02;;;;;;;9.16;5.88;;;3.50;99.90;;;5.63;100.00;99476.42;1701525;73;24526;-80
2021/01/23 03:48:23;;;;;;;13.75;8.41;;;3.50;99.90;;;5.51;100.00;99489.24;1707786;74;24932;-79
2021/01/23 03:50:42;;;;;;;9.92;6.86;;;3.50;99.90;;;5.71;100.00;99487.68;1702380;74;24457;-76
2021/01/23 03:52:58;;;;;;;10.45;8.23;;;3.50;99.90;;;5.65;100.00;99491.52;1709662;74;24468;-81
2021/01/23 03:55:16;;;;;;;10.83;7.67;;;3.50;99.90;;;5.74;100.00;99486.00;1709550;74;24598;-78
2021/01/23 03:57:34;;;;;;;9.91;6.49;;;3.60;99.90;;;5.73;100.00;99482.11;1705221;74;24961;-80
2021/01/23 03:59:52;;;;;;;12.43;8.90;;;3.60;99.90;;;5.81;100.00;99489.50;1702320;74;24546;-79
2021/01/23 04:02:08;;;;;;;8.45;5.98;;;3.60;99.90;;;5.81;100.00;99491.66;1710813;74;24910;-81
2021/01/23 04:04:26;;;;;;;10.85;8.34;;;3.60;99.90;;;5.74;100.00;99486.00;1720579;73;24448;-80
2021/01/23 04:06:44;;;;;;;10.76;7.69;;;3.70;99.90;;;5.96;100.00;99478.00;1706699;74;24505;-81
2021/01/23 04:09:03;;;;;;;10.37;7.70;;;3.70;99.90;;;5.97;100.00;99478.01;1705603;74;24440;-79
2021/01/23 04:11:20;;;;;;;8.44;6.32;;;3.70;99.90;;;5.93;100.00;99474.11;1715747;73;25036;-79
2021/01/23 04:13:38;;;;;;;8.16;5.81;;;3.70;99.90;;;5.92;100.00;99476.27;1713099;73;24443;-79
2021/01/23 04:15:57;;;;;;;12.20;7.56;;;3.80;99.90;;;5.99;100.00;99472.44;1705459;74;24518;-79
2021/01/23 04:18:17;;;;;;;9.73;7.13;;;3.80;99.90;;;5.99;100.00;99469.84;1709133;73;24878;-80
2021/01/23 04:20:35;;;;;;;7.97;5.41;;;3.80;99.90;;;5.93;100.00;99469.81;1684449;75;24885;-80
2021/01/23 04:22:52;;;;;;;9.00;6.70;;;3.80;99.90;;;5.92;100.00;99462.05;1648881;76;24542;-79
2021/01/23 04:25:12;;;;;;;9.87;6.79;;;3.80;99.90;;;5.96;100.00;99463.38;1719882;74;24443;-79
2021/01/23 04:27:31;;;;;;;9.00;6.42;;;3.90;99.90;;;5.95;100.00;99448.73;1710344;73;24397;-81
2021/01/23 04:29:53;;;;;;;9.23;5.75;;;3.80;99.90;;;6.02;100.00;99445.77;1710093;74;24911;-81
2021/01/23 04:32:11;;;;;;;10.11;6.89;;;3.90;99.90;;;5.94;100.00;99448.28;1705258;74;24532;-79
2021/01/23 04:34:32;;;;;;;8.02;6.21;;;3.90;99.90;;;6.02;100.00;99449.20;1716878;73;24484;-80
2021/01/23 04:36:49;;;;;;;6.64;5.64;;;3.90;99.90;;;6.03;100.00;99456.53;1706544;74;24902;-81
2021/01/23 04:39:10;;;;;;;7.56;5.56;;;3.90;99.90;;;6.00;100.00;99452.64;1712638;74;24516;-81
2021/01/23 04:41:31;;;;;;;10.53;6.84;;;3.90;99.90;;;5.98;100.00;99452.63;1720930;73;24689;-79
2021/01/23 04:43:59;;;;;;;12.27;8.08;;;3.90;99.90;;;6.03;100.00;99452.66;1716872;73;24907;-80
2021/01/23 04:46:17;;;;;;;6.99;5.27;;;4.00;99.90;;;6.16;100.00;99447.55;1705868;74;24511;-80
2021/01/23 04:48:35;;;;;;;9.67;6.03;;;4.00;99.90;;;6.11;100.00;99439.36;1717944;74;24423;-80
2021/01/23 04:50:51;;;;;;;10.53;6.67;;;4.00;99.90;;;6.04;100.00;99446.20;1717158;74;24476;-80
2021/01/23 04:53:09;;;;;;;9.62;6.10;;;4.00;99.90;;;6.16;100.00;99437.67;1705162;74;24441;-80
2021/01/23 04:55:27;;;;;;;12.02;8.45;;;4.00;99.90;;;6.03;100.00;99438.03;1705344;74;24501;-79
2021/01/23 04:57:57;;;;;;;10.05;8.20;;;4.00;99.90;;;6.07;100.00;99433.30;1706147;74;24448;-80
2021/01/23 05:00:22;;;;;;;11.52;8.97;;;3.90;99.90;;;5.99;100.00;99440.14;1710607;73;24913;-79
2021/01/23 05:02:40;;;;;;;8.96;6.72;;;3.90;99.90;;;6.01;100.00;99434.98;1709113;74;24946;-78
2021/01/23 05:05:00;;;;;;;9.18;5.86;;;3.80;99.90;;;5.88;100.00;99435.34;1705472;74;24559;-79
2021/01/23 05:07:31;;;;;;;10.81;7.75;;;3.80;99.90;;;5.79;100.00;99436.54;1710606;74;24501;-82
2021/01/23 05:09:49;;;;;;;10.38;6.68;;;3.70;99.90;;;5.77;100.00;99424.48;1718041;73;24476;-79
2021/01/23 05:12:08;;;;;;;10.31;8.65;;;3.70;99.90;;;5.57;100.00;99445.41;1709566;74;24499;-80
2021/01/23 05:14:26;;;;;;;11.75;7.29;;;3.60;99.90;;;5.75;100.00;99430.90;1705291;74;24487;-77
2021/01/23 05:16:45;;;;;;;11.82;7.01;;;3.60;99.90;;;5.52;100.00;99438.04;1708410;74;24492;-80
2021/01/23 05:19:05;;;;;;;10.02;8.11;;;3.50;99.90;;;5.63;100.00;99430.83;1725157;73;24921;-80
2021/01/23 05:21:22;;;;;;;8.75;6.33;;;3.50;99.90;;;5.65;100.00;99425.25;1719365;72;24449;-79
2021/01/23 05:23:40;;;;;;;10.08;6.90;;;3.40;99.90;;;5.55;100.00;99434.19;1711451;74;24566;-79
2021/01/23 05:25:59;;;;;;;8.05;6.72;;;3.40;99.90;;;5.50;100.00;99436.73;1702098;74;24498;-81
2021/01/23 05:28:27;;;;;;;12.03;9.60;;;3.40;99.90;;;5.59;100.00;99435.96;1680628;75;24447;-79
2021/01/23 05:30:50;;;;;;;8.96;6.65;;;3.40;99.90;;;5.81;100.00;99429.67;1713273;74;24459;-81
2021/01/23 05:33:10;;;;;;;13.44;7.56;;;3.50;99.90;;;5.73;100.00;99435.22;1709881;73;24452;-80
2021/01/23 05:35:28;;;;;;;11.84;8.35;;;3.50;99.90;;;5.78;100.00;99430.08;1723428;73;24447;-79
2021/01/23 05:37:46;;;;;;;16.30;10.12;;;3.50;99.90;;;5.71;100.00;99416.67;1718480;74;24479;-81
2021/01/23 05:40:03;;;;;;;13.34;9.63;;;3.50;99.90;;;5.79;100.00;99427.92;1719324;73;24503;-79
2021/01/23 05:42:22;;;;;;;13.28;9.42;;;3.50;99.90;;;5.71;100.00;99433.03;1724771;73;24509;-81
2021/01/23 05:44:43;;;;;;;11.65;8.15;;;3.50;99.90;;;5.54;100.00;99435.05;1708555;74;24487;-79
2021/01/23 05:46:59;;;;;;;10.71;7.72;;;3.40;99.90;;;5.47;100.00;99433.30;1704955;74;24874;-80
2021/01/23 05:49:16;;;;;;;13.21;9.50;;;3.40;99.90;;;5.49;100.00;99437.61;1708914;73;24910;-80
2021/01/23 05:51:33;;;;;;;13.00;9.55;;;3.40;99.90;;;5.57;100.00;99434.66;1703763;74;24869;-81
2021/01/23 05:53:54;;;;;;;10.87;8.33;;;3.30;99.90;;;5.55;100.00;99440.64;1696969;74;24562;-81
2021/01/23 05:56:14;;;;;;;12.19;7.77;;;3.40;99.90;;;5.49;100.00;99435.44;1711096;74;24613;-80
2021/01/23 05:58:34;;;;;;;14.98;9.34;;;3.30;99.90;;;5.53;100.00;99434.63;1716901;73;24468;-81
2021/01/23 06:00:55;;;;;;;12.34;7.48;;;3.30;99.90;;;5.50;100.00;99441.91;1709160;74;25028;-78
2021/01/23 06:03:16;;;;;;;11.84;8.91;;;3.30;99.90;;;5.41;100.00;99428.05;1703920;74;24444;-80
2021/01/23 06:05:35;;;;;;;13.25;8.73;;;3.30;99.90;;;5.40;100.00;99440.53;1707713;74;24467;-83
2021/01/23 06:07:54;;;;;;;15.79;10.24;;;3.20;99.90;;;5.36;100.00;99438.80;1714327;73;24869;-80
2021/01/23 06:13:10;;;;;;;12.09;7.48;;;3.20;99.90;;;5.33;100.00;99428.41;1734847;72;25343;-79
2021/01/23 06:15:58;;;;;;;14.84;9.80;;;3.10;99.90;;;5.27;100.00;99424.08;1683872;75;24912;-81
2021/01/23 06:18:31;;;;;;;15.22;8.87;;;3.10;99.90;;;5.35;100.00;99431.88;1679516;75;24448;-79
2021/01/23 06:20:58;;;;;;;10.70;7.87;;;3.10;99.90;;;5.29;100.00;99436.58;1680749;75;24575;-79
2021/01/23 06:23:27;;;;;;;13.41;9.60;;;3.10;99.90;;;5.45;100.00;99434.58;1695855;75;24892;-79
2021/01/23 06:26:06;;;;;;;12.25;7.88;;;3.10;99.90;;;5.53;100.00;99442.38;1689514;75;24897;-81
2021/01/23 06:28:53;;;;;;;14.63;9.77;;;3.20;99.90;;;5.60;100.00;99442.84;1686013;75;24457;-79
2021/01/23 06:31:34;;;;;;;14.25;9.18;;;3.30;99.90;;;5.62;100.00;99443.72;1689355;75;24457;-80
2021/01/23 06:34:13;;;;;;;14.78;10.80;;;3.30;99.90;;;5.52;100.00;99446.66;1686503;75;24486;-80
2021/01/23 06:36:32;;;;;;;12.86;7.82;;;3.30;99.90;;;5.52;100.00;99443.20;1688924;75;24584;-79
2021/01/23 06:39:21;;;;;;;14.69;7.31;;;3.20;99.90;;;5.37;100.00;99442.67;1697516;75;24464;-81
2021/01/23 06:41:45;;;;;;;16.70;11.16;;;3.20;99.90;;;5.45;100.00;99440.16;1693779;75;24536;-80
2021/01/23 06:44:42;;;;;;;17.99;11.40;;;3.20;99.90;;;5.66;100.00;99446.34;1698284;74;24530;-80
2021/01/23 06:47:04;;;;;;;16.78;11.08;;;3.30;99.90;;;5.87;100.00;99449.11;1682568;75;24547;-79
2021/01/23 06:49:28;;;;;;;14.13;9.34;;;3.40;99.90;;;5.96;100.00;99450.88;1698849;75;24477;-82
2021/01/23 06:51:49;;;;;;;14.02;9.11;;;3.50;99.90;;;5.93;100.00;99443.98;1689884;75;24438;-81
2021/01/23 06:54:21;;;;;;;10.83;6.85;;;3.60;99.90;;;5.85;100.00;99452.52;1693055;75;24490;-78
2021/01/23 06:56:43;;;;;;;9.56;6.41;;;3.60;99.90;;;5.75;100.00;99451.56;1683216;75;25010;-79
2021/01/23 06:59:00;;;;;;;13.55;9.36;;;3.70;99.90;;;5.67;100.00;99454.95;1697825;74;24449;-82
2021/01/23 07:01:24;;;;;;;14.78;10.30;;;3.60;99.90;;;5.61;100.00;99454.91;1685884;75;24457;-81
2021/01/23 07:03:46;;;;;;;14.90;10.61;;;3.60;99.90;;;5.61;100.00;99450.59;1693677;75;24449;-79
2021/01/23 07:06:14;;;;;;;13.52;9.94;;;3.50;99.90;;;5.54;100.00;99450.13;1683802;75;24483;-77
2021/01/23 07:08:36;;;;;;;13.40;9.75;;;3.40;99.90;;;5.56;100.00;99455.30;1687562;75;24514;-80
2021/01/23 07:11:21;;;;;;;11.44;7.58;;;3.40;99.90;;;5.44;100.00;99458.63;1669289;75;24553;-79
2021/01/23 07:13:38;;;;;;;10.57;7.34;;;3.30;99.90;;;5.38;100.00;99456.42;1679091;75;24982;-79
2021/01/23 07:15:56;;;;;;;9.70;7.27;;;3.20;99.90;;;5.29;100.00;99459.80;1691346;75;25081;-80
2021/01/23 07:18:17;;;;;;;13.01;9.10;;;3.20;99.90;;;5.37;100.00;99468.48;1680109;75;24433;-81
2021/01/23 07:20:42;;;;;;;13.57;9.57;;;3.20;99.90;;;5.38;100.00;99467.63;1683943;75;24887;-83
2021/01/23 07:22:57;;;;;;;12.42;8.43;;;3.20;99.90;;;5.50;100.00;99469.01;1683601;75;24485;-78
2021/01/23 07:25:17;;;;;;;15.74;11.09;;;3.20;99.90;;;5.43;100.00;99465.08;1684440;75;24435;-80
2021/01/23 07:27:36;;;;;;;17.97;12.12;;;3.20;99.90;;;5.56;100.00;99469.50;1697530;75;24895;-81
2021/01/23 07:29:57;;;;;;;14.23;10.14;;;3.20;99.90;;;5.60;100.00;99477.70;1684039;75;24429;-80
2021/01/23 07:32:13;;;;;;;16.06;10.96;;;3.20;99.90;;;5.62;100.00;99485.91;1682760;75;25091;-79
2021/01/23 07:34:32;;;;;;;15.56;10.91;;;3.20;99.90;;;5.61;100.00;99482.87;1676863;75;24911;-80
2021/01/23 07:36:50;;;;;;;16.65;11.39;;;3.30;99.90;;;5.55;100.00;99473.79;1693575;75;24445;-80
2021/01/23 07:39:14;;;;;;;17.03;10.85;;;3.20;99.90;;;5.57;100.00;99477.67;1687579;75;24481;-81
2021/01/23 07:41:41;;;;;;;10.51;6.27;;;3.20;99.90;;;5.53;100.00;99481.09;1680651;75;24473;-80
2021/01/23 07:43:59;;;;;;;11.57;8.28;;;3.20;99.90;;;5.41;100.00;99481.84;1697129;75;24428;-82
2021/01/23 07:46:16;;;;;;;16.84;10.48;;;3.20;99.90;;;5.55;100.00;99476.78;1679493;75;24450;-79
2021/01/23 07:48:44;;;;;;;12.37;8.90;;;3.20;99.90;;;5.61;100.00;99475.13;1682646;75;24523;-81
2021/01/23 07:51:02;;;;;;;13.93;8.99;;;3.30;99.90;;;5.65;100.00;99474.31;1687308;75;24461;-79
2021/01/23 07:53:24;;;;;;;15.15;11.08;;;3.30;99.90;;;5.62;100.00;99471.71;1698710;75;24465;-81
2021/01/23 07:55:55;;;;;;;15.45;9.85;;;3.30;99.90;;;5.71;100.00;99474.77;1684787;75;24461;-81
2021/01/23 07:58:14;;;;;;;17.15;8.29;;;3.30;99.90;;;5.74;100.00;99475.67;1694309;74;24433;-80
2021/01/23 08:00:33;;;;;;;10.10;7.73;;;3.20;99.90;;;5.73;100.00;99471.78;1687082;75;24869;-79
2021/01/23 08:02:57;;;;;;;14.88;9.20;;;3.20;99.90;;;5.64;100.00;99466.55;1687212;75;24482;-78
2021/01/23 08:05:19;;;;;;;12.99;8.26;;;3.20;99.90;;;5.74;100.00;99464.46;1686275;75;24447;-79
2021/01/23 08:07:38;;;;;;;17.32;11.38;;;3.20;99.90;;;5.73;100.00;99473.08;1682472;75;24493;-80
2021/01/23 08:10:17;;;;;;;12.99;9.94;;;3.30;99.90;;;6.01;100.00;99472.03;1679202;73;24527;-81
2021/01/23 08:12:35;;;;;;;10.66;7.75;;;3.30;99.90;;;6.03;100.00;99466.45;1689308;74;24457;-79
2021/01/23 08:14:58;;;;;;;15.00;10.50;;;3.40;99.90;;;5.98;100.00;99470.72;1692592;75;24460;-75
2021/01/23 08:17:15;;;;;;;12.21;8.90;;;3.50;99.90;;;6.16;100.00;99479.02;1685487;75;24500;-79
2021/01/23 08:19:31;;;;;;;13.85;9.41;;;3.60;99.90;;;6.24;100.00;99481.64;1682771;75;24946;-79
2021/01/23 08:22:08;;;;;;;13.60;8.74;;;3.60;99.90;;;6.27;100.00;99485.11;1688770;75;24493;-80
2021/01/23 08:27:21;;;;;;;9.73;8.10;;;3.80;99.90;;;6.46;100.00;99474.02;1738414;72;25191;-79
2021/01/23 08:29:51;;;;;;;12.71;8.55;;;3.90;99.90;;;6.33;100.00;99472.63;1701995;75;24558;-82
2021/01/23 08:32:11;;;;;;;10.89;7.00;;;3.90;99.90;;;6.35;100.00;99465.34;1731737;73;24531;-80
2021/01/23 08:34:37;;;;;;;11.80;8.50;;;3.90;99.90;;;6.25;100.00;99467.43;1736102;73;24423;-79
2021/01/23 08:36:56;;;;;;;12.58;9.16;;;4.00;99.90;;;6.30;100.00;99468.33;1735222;73;24517;-77
2021/01/23 08:39:20;;;;;;;12.15;7.45;;;4.00;99.90;;;6.43;100.00;99470.13;1733742;73;24459;-78
2021/01/23 08:41:47;;;;;;;13.46;9.54;;;4.00;99.90;;;6.25;100.00;99463.55;1706603;74;24422;-78
2021/01/23 08:44:16;;;;;;;16.87;9.05;;;3.90;99.90;;;6.35;100.00;99458.88;1721367;73;24517;-77
2021/01/23 08:46:33;;;;;;;12.74;9.86;;;4.00;99.90;;;6.43;100.00;99462.37;1730896;72;24503;-76
2021/01/23 08:48:55;;;;;;;9.90;7.01;;;4.00;99.90;;;6.58;100.00;99446.03;1727729;72;24499;-78
2021/01/23 08:51:14;;;;;;;15.26;9.72;;;4.00;99.90;;;6.50;100.00;99461.94;1728482;73;24965;-78
2021/01/23 08:53:34;;;;;;;9.49;6.92;;;4.10;99.90;;;6.82;100.00;99451.30;1723196;73;24452;-76
2021/01/23 08:55:50;;;;;;;11.61;9.09;;;4.30;99.90;;;6.88;100.00;99448.72;1724038;73;24482;-78
2021/01/23 08:58:09;;;;;;;13.06;8.63;;;4.50;99.90;;;7.05;100.00;99446.61;1726109;73;24525;-77
2021/01/23 09:00:28;;;;;;;12.03;8.17;;;4.60;99.90;;;6.93;100.00;99458.66;1722510;73;24514;-75
2021/01/23 09:02:45;;;;;;;9.64;7.71;;;4.60;99.90;;;6.81;100.00;99458.63;1727633;73;24483;-75
2021/01/23 09:05:03;;;;;;;12.13;8.84;;;4.60;99.90;;;6.81;100.00;99456.89;1726107;73;24447;-76
2021/01/23 09:07:21;;;;;;;11.93;7.41;;;4.60;99.90;;;7.00;100.00;99461.26;1731307;73;24418;-75
2021/01/23 09:09:41;;;;;;;11.48;7.78;;;4.70;99.90;;;6.97;100.00;99452.20;1724772;73;25103;-76
2021/01/23 09:12:03;;;;;;;10.85;6.67;;;4.70;99.90;;;6.95;100.00;99445.30;1732239;73;24360;-79
2021/01/23 09:14:23;;;;;;;10.49;7.93;;;4.80;99.90;;;6.97;100.00;99461.70;1725921;73;24636;-77
2021/01/23 09:16:55;;;;;;;9.81;7.84;;;4.80;99.90;;;7.04;100.00;99456.54;1725501;73;24389;-77
2021/01/23 09:19:12;;;;;;;8.45;7.18;;;4.80;99.90;;;7.18;100.00;99454.84;1734557;73;24457;-76
2021/01/23 09:21:39;;;;;;;12.20;7.76;;;5.00;99.90;;;7.37;100.00;99452.70;1732860;73;24508;-78
2021/01/23 09:23:58;;;;;;;8.44;7.38;;;5.10;99.90;;;7.55;100.00;99464.81;1730421;72;24514;-76
2021/01/23 09:26:16;;;;;;;11.18;8.30;;;5.30;99.90;;;7.59;100.00;99447.97;1730292;73;24508;-80
2021/01/23 09:28:36;;;;;;;11.50;7.89;;;5.40;99.90;;;7.58;100.00;99451.44;1741145;73;24480;-79
2021/01/23 09:30:58;;;;;;;7.62;5.61;;;5.50;99.90;;;7.61;100.00;99448.84;1739957;73;24518;-79
2021/01/23 09:33:30;;;;;;;6.69;4.99;;;5.60;99.90;;;7.55;100.00;99446.26;1738335;72;24506;-78
2021/01/23 09:35:48;;;;;;;8.63;6.07;;;5.50;99.90;;;7.37;100.00;99444.94;1737246;73;25173;-78
2021/01/23 09:38:12;;;;;;;11.76;8.02;;;5.50;99.90;;;7.18;100.00;99441.90;1713957;73;24926;-79
2021/01/23 09:40:31;;;;;;;12.40;6.93;;;5.30;99.90;;;7.31;100.00;99449.25;1738019;73;24514;-80
2021/01/23 09:42:57;;;;;;;6.80;5.27;;;5.30;99.90;;;7.34;100.00;99452.71;1740162;73;24878;-77
2021/01/23 09:45:33;;;;;;;12.91;6.61;;;5.20;99.90;;;7.26;100.00;99448.38;1738055;73;24418;-81
2021/01/23 09:47:52;;;;;;;7.17;5.60;;;5.20;99.90;;;7.38;100.00;99446.66;1734255;73;24486;-77
2021/01/23 09:50:20;;;;;;;9.15;5.29;;;5.20;99.90;;;7.53;100.00;99447.97;1740965;73;24517;-80
2021/01/23 09:52:40;;;;;;;11.21;6.72;;;5.20;99.90;;;7.45;100.00;99447.53;1737943;73;24525;-79
2021/01/23 09:55:02;;;;;;;8.94;6.24;;;5.20;99.90;;;7.60;100.00;99445.80;1743436;73;24422;-77
2021/01/23 09:57:19;;;;;;;7.50;4.89;;;5.30;99.90;;;7.61;100.00;99445.37;1743977;73;24932;-77
2021/01/23 09:59:36;;;;;;;8.00;5.04;;;5.30;99.90;;;7.54;100.00;99444.93;1742572;72;24426;-77
2021/01/23 10:01:54;;;;;;;7.54;5.87;;;5.40;99.90;;;7.65;100.00;99445.80;1744017;73;24474;-76
2021/01/23 10:04:11;;;;;;;8.25;6.30;;;5.40;99.90;;;7.77;100.00;99433.27;1743313;73;24555;-77
2021/01/23 10:06:32;;;;;;;8.51;5.80;;;5.40;99.90;;;7.68;100.00;99440.19;1739931;73;24498;-78